sensor_id;sensor_type;location;lat;lon;timestamp;pressure;altitude;pressure_sealevel;temperature;humidity
60725;BME280;59881;36.722;-4.462;2023-04-26T00:01:52;100519.91;;;16.94;60.11
60725;BME280;59881;36.722;-4.462;2023-04-26T00:04:18;100522.41;;;16.95;60.26
60725;BME280;59881;36.722;-4.462;2023-04-26T00:06:43;100485.25;;;16.76;60.15
60725;BME280;59881;36.722;-4.462;2023-04-26T00:09:10;100539.50;;;16.93;59.10
60725;BME280;59881;36.722;-4.462;2023-04-26T00:11:35;100534.78;;;16.77;58.63
60725;BME280;59881;36.722;-4.462;2023-04-26T00:14:01;100671.66;;;17.87;58.04
60725;BME280;59881;36.722;-4.462;2023-04-26T00:16:26;100640.03;;;17.64;58.27
60725;BME280;59881;36.722;-4.462;2023-04-26T00:18:52;100502.22;;;16.65;58.54
60725;BME280;59881;36.722;-4.462;2023-04-26T00:21:18;100461.22;;;16.58;59.72
60725;BME280;59881;36.722;-4.462;2023-04-26T00:23:44;100478.28;;;16.65;59.97
60725;BME280;59881;36.722;-4.462;2023-04-26T00:26:09;100542.97;;;17.03;60.36
60725;BME280;59881;36.722;-4.462;2023-04-26T00:28:35;100691.44;;;17.74;61.44
60725;BME280;59881;36.722;-4.462;2023-04-26T00:31:00;100659.63;;;17.73;61.93
60725;BME280;59881;36.722;-4.462;2023-04-26T00:33:27;100456.44;;;16.34;61.63
60725;BME280;59881;36.722;-4.462;2023-04-26T00:35:53;100658.69;;;17.64;61.69
60725;BME280;59881;36.722;-4.462;2023-04-26T00:38:18;100482.09;;;16.53;61.94
60725;BME280;59881;36.722;-4.462;2023-04-26T00:40:44;100576.31;;;16.98;61.98
60725;BME280;59881;36.722;-4.462;2023-04-26T00:43:09;100629.78;;;17.42;62.30
60725;BME280;59881;36.722;-4.462;2023-04-26T00:45:35;100650.44;;;17.57;62.32
60725;BME280;59881;36.722;-4.462;2023-04-26T00:48:01;100622.81;;;17.41;62.30
60725;BME280;59881;36.722;-4.462;2023-04-26T00:50:28;100602.78;;;17.36;62.15
60725;BME280;59881;36.722;-4.462;2023-04-26T00:52:55;100653.97;;;17.58;62.14
60725;BME280;59881;36.722;-4.462;2023-04-26T00:55:22;100438.38;;;16.38;61.93
60725;BME280;59881;36.722;-4.462;2023-04-26T00:57:48;100466.63;;;16.39;61.57
60725;BME280;59881;36.722;-4.462;2023-04-26T01:00:14;100444.13;;;16.33;61.33
60725;BME280;59881;36.722;-4.462;2023-04-26T01:02:40;100649.47;;;17.31;60.83
60725;BME280;59881;36.722;-4.462;2023-04-26T01:05:06;100645.19;;;17.48;59.77
60725;BME280;59881;36.722;-4.462;2023-04-26T01:07:34;100394.28;;;16.07;58.21
60725;BME280;59881;36.722;-4.462;2023-04-26T01:10:02;100612.63;;;17.54;57.42
60725;BME280;59881;36.722;-4.462;2023-04-26T01:12:30;100510.84;;;16.77;56.37
60725;BME280;59881;36.722;-4.462;2023-04-26T01:14:56;100562.72;;;17.28;55.86
60725;BME280;59881;36.722;-4.462;2023-04-26T01:17:22;100444.44;;;16.58;55.20
60725;BME280;59881;36.722;-4.462;2023-04-26T01:19:48;100188.25;;;15.10;54.54
60725;BME280;59881;36.722;-4.462;2023-04-26T01:22:14;100418.28;;;16.53;53.73
60725;BME280;59881;36.722;-4.462;2023-04-26T01:24:42;100333.00;;;16.09;53.17
60725;BME280;59881;36.722;-4.462;2023-04-26T01:27:09;100475.41;;;16.86;52.30
60725;BME280;59881;36.722;-4.462;2023-04-26T01:29:34;100481.69;;;17.13;52.36
60725;BME280;59881;36.722;-4.462;2023-04-26T01:32:00;100375.50;;;16.46;51.67
60725;BME280;59881;36.722;-4.462;2023-04-26T01:34:26;100602.50;;;17.85;51.27
60725;BME280;59881;36.722;-4.462;2023-04-26T01:36:52;100521.75;;;17.39;51.01
60725;BME280;59881;36.722;-4.462;2023-04-26T01:39:18;100488.25;;;17.19;51.04
60725;BME280;59881;36.722;-4.462;2023-04-26T01:41:44;100429.03;;;16.89;50.42
60725;BME280;59881;36.722;-4.462;2023-04-26T01:44:09;100582.69;;;17.88;50.08
60725;BME280;59881;36.722;-4.462;2023-04-26T01:46:35;100578.75;;;17.92;49.34
60725;BME280;59881;36.722;-4.462;2023-04-26T01:49:01;100577.47;;;17.96;48.75
60725;BME280;59881;36.722;-4.462;2023-04-26T01:51:26;100418.19;;;17.00;48.33
60725;BME280;59881;36.722;-4.462;2023-04-26T01:53:52;100472.06;;;17.30;47.61
60725;BME280;59881;36.722;-4.462;2023-04-26T01:56:20;100383.16;;;16.77;46.98
60725;BME280;59881;36.722;-4.462;2023-04-26T01:58:45;100578.19;;;18.06;47.03
60725;BME280;59881;36.722;-4.462;2023-04-26T02:01:11;100449.09;;;17.29;46.59
60725;BME280;59881;36.722;-4.462;2023-04-26T02:03:37;100297.38;;;16.29;46.50
60725;BME280;59881;36.722;-4.462;2023-04-26T02:06:02;100580.94;;;18.14;45.87
60725;BME280;59881;36.722;-4.462;2023-04-26T02:08:28;100306.84;;;16.60;44.99
60725;BME280;59881;36.722;-4.462;2023-04-26T02:10:54;100557.69;;;18.25;44.63
60725;BME280;59881;36.722;-4.462;2023-04-26T02:13:20;100501.97;;;17.95;44.11
60725;BME280;59881;36.722;-4.462;2023-04-26T02:15:46;100587.97;;;18.41;43.64
60725;BME280;59881;36.722;-4.462;2023-04-26T02:18:12;100329.41;;;17.01;43.44
60725;BME280;59881;36.722;-4.462;2023-04-26T02:20:41;100539.19;;;18.23;43.84
60725;BME280;59881;36.722;-4.462;2023-04-26T02:23:10;100339.81;;;16.94;43.93
60725;BME280;59881;36.722;-4.462;2023-04-26T02:25:37;100566.22;;;18.28;44.07
60725;BME280;59881;36.722;-4.462;2023-04-26T02:28:03;100442.41;;;17.43;44.43
60725;BME280;59881;36.722;-4.462;2023-04-26T02:30:29;100585.81;;;18.19;45.09
60725;BME280;59881;36.722;-4.462;2023-04-26T02:32:55;100484.31;;;17.58;46.49
60725;BME280;59881;36.722;-4.462;2023-04-26T02:35:22;100570.19;;;18.06;48.75
60725;BME280;59881;36.722;-4.462;2023-04-26T02:37:48;100351.06;;;16.33;50.48
60725;BME280;59881;36.722;-4.462;2023-04-26T02:40:19;100469.91;;;17.15;53.13
60725;BME280;59881;36.722;-4.462;2023-04-26T02:42:45;100471.50;;;17.08;55.64
60725;BME280;59881;36.722;-4.462;2023-04-26T02:45:11;100376.75;;;16.52;56.61
60725;BME280;59881;36.722;-4.462;2023-04-26T02:47:37;100391.56;;;16.54;57.91
60725;BME280;59881;36.722;-4.462;2023-04-26T02:50:07;100393.97;;;16.48;59.11
60725;BME280;59881;36.722;-4.462;2023-04-26T02:52:34;100337.53;;;15.99;59.44
60725;BME280;59881;36.722;-4.462;2023-04-26T02:55:01;100324.44;;;15.87;60.21
60725;BME280;59881;36.722;-4.462;2023-04-26T02:57:27;100477.75;;;16.62;60.94
60725;BME280;59881;36.722;-4.462;2023-04-26T02:59:53;100377.34;;;16.08;61.65
60725;BME280;59881;36.722;-4.462;2023-04-26T03:02:20;100584.88;;;17.29;62.26
60725;BME280;59881;36.722;-4.462;2023-04-26T03:04:46;100579.28;;;17.22;62.43
60725;BME280;59881;36.722;-4.462;2023-04-26T03:07:12;100537.19;;;16.80;63.26
60725;BME280;59881;36.722;-4.462;2023-04-26T03:09:38;100517.47;;;16.83;64.29
60725;BME280;59881;36.722;-4.462;2023-04-26T03:12:05;100374.16;;;15.95;65.08
60725;BME280;59881;36.722;-4.462;2023-04-26T03:14:31;100583.66;;;17.23;65.99
60725;BME280;59881;36.722;-4.462;2023-04-26T03:16:58;100577.63;;;17.21;66.75
60725;BME280;59881;36.722;-4.462;2023-04-26T03:19:23;100469.81;;;16.42;67.06
60725;BME280;59881;36.722;-4.462;2023-04-26T03:21:50;100432.84;;;16.11;67.61
60725;BME280;59881;36.722;-4.462;2023-04-26T03:24:15;100371.72;;;15.74;68.07
60725;BME280;59881;36.722;-4.462;2023-04-26T03:26:41;100602.22;;;17.05;69.36
60725;BME280;59881;36.722;-4.462;2023-04-26T03:29:07;100557.50;;;16.81;70.01
60725;BME280;59881;36.722;-4.462;2023-04-26T03:31:33;100628.28;;;17.02;70.72
60725;BME280;59881;36.722;-4.462;2023-04-26T03:33:58;100613.84;;;17.04;71.71
60725;BME280;59881;36.722;-4.462;2023-04-26T03:36:24;100603.34;;;17.03;72.45
60725;BME280;59881;36.722;-4.462;2023-04-26T03:38:49;100408.47;;;15.79;72.67
60725;BME280;59881;36.722;-4.462;2023-04-26T03:41:16;100481.28;;;16.05;72.68
60725;BME280;59881;36.722;-4.462;2023-04-26T03:43:42;100567.72;;;16.66;72.91
60725;BME280;59881;36.722;-4.462;2023-04-26T03:46:07;100589.81;;;16.76;73.72
60725;BME280;59881;36.722;-4.462;2023-04-26T03:48:33;100377.88;;;15.45;74.36
60725;BME280;59881;36.722;-4.462;2023-04-26T03:50:58;100460.72;;;15.98;75.22
60725;BME280;59881;36.722;-4.462;2023-04-26T03:53:24;100590.78;;;16.75;76.03
60725;BME280;59881;36.722;-4.462;2023-04-26T03:55:49;100619.53;;;16.72;76.01
60725;BME280;59881;36.722;-4.462;2023-04-26T03:58:15;100318.81;;;15.04;75.56
60725;BME280;59881;36.722;-4.462;2023-04-26T04:00:40;100583.81;;;16.65;75.97
60725;BME280;59881;36.722;-4.462;2023-04-26T04:03:07;100516.50;;;16.17;75.86
60725;BME280;59881;36.722;-4.462;2023-04-26T04:05:33;100461.00;;;15.85;76.53
60725;BME280;59881;36.722;-4.462;2023-04-26T04:07:59;100355.25;;;15.31;76.81
60725;BME280;59881;36.722;-4.462;2023-04-26T04:10:24;100423.84;;;15.65;76.80
60725;BME280;59881;36.722;-4.462;2023-04-26T04:12:50;100409.44;;;15.58;76.62
60725;BME280;59881;36.722;-4.462;2023-04-26T04:15:17;100539.56;;;16.26;76.00
60725;BME280;59881;36.722;-4.462;2023-04-26T04:17:43;100476.94;;;15.95;75.68
60725;BME280;59881;36.722;-4.462;2023-04-26T04:20:09;100571.00;;;16.50;74.86
60725;BME280;59881;36.722;-4.462;2023-04-26T04:22:35;100559.97;;;16.26;74.27
60725;BME280;59881;36.722;-4.462;2023-04-26T04:25:00;100430.25;;;15.53;74.08
60725;BME280;59881;36.722;-4.462;2023-04-26T04:27:28;100593.56;;;16.37;73.45
60725;BME280;59881;36.722;-4.462;2023-04-26T04:29:54;100414.19;;;15.35;72.83
60725;BME280;59881;36.722;-4.462;2023-04-26T04:32:21;100533.81;;;16.11;72.76
60725;BME280;59881;36.722;-4.462;2023-04-26T04:34:48;100428.03;;;15.29;72.43
60725;BME280;59881;36.722;-4.462;2023-04-26T04:37:15;100569.19;;;16.31;72.35
60725;BME280;59881;36.722;-4.462;2023-04-26T04:39:41;100486.34;;;15.79;72.11
60725;BME280;59881;36.722;-4.462;2023-04-26T04:42:06;100561.25;;;16.22;72.05
60725;BME280;59881;36.722;-4.462;2023-04-26T04:44:32;100449.81;;;15.62;72.28
60725;BME280;59881;36.722;-4.462;2023-04-26T04:46:58;100576.19;;;16.32;72.13
60725;BME280;59881;36.722;-4.462;2023-04-26T04:49:23;100541.25;;;15.98;72.61
60725;BME280;59881;36.722;-4.462;2023-04-26T04:51:49;100571.44;;;16.36;72.30
60725;BME280;59881;36.722;-4.462;2023-04-26T04:54:16;100568.78;;;16.36;71.82
60725;BME280;59881;36.722;-4.462;2023-04-26T04:56:43;100578.56;;;16.35;71.19
60725;BME280;59881;36.722;-4.462;2023-04-26T04:59:09;100573.25;;;16.35;71.12
60725;BME280;59881;36.722;-4.462;2023-04-26T05:01:35;100577.72;;;16.35;70.99
60725;BME280;59881;36.722;-4.462;2023-04-26T05:04:03;100536.47;;;16.11;70.79
60725;BME280;59881;36.722;-4.462;2023-04-26T05:06:29;100411.69;;;15.34;71.03
60725;BME280;59881;36.722;-4.462;2023-04-26T05:08:58;100574.25;;;16.34;72.20
60725;BME280;59881;36.722;-4.462;2023-04-26T05:11:24;100543.50;;;15.93;72.60
60725;BME280;59881;36.722;-4.462;2023-04-26T05:13:49;100320.47;;;14.76;72.63
60725;BME280;59881;36.722;-4.462;2023-04-26T05:16:15;100586.72;;;16.34;72.53
60725;BME280;59881;36.722;-4.462;2023-04-26T05:18:41;100479.63;;;15.75;73.41
60725;BME280;59881;36.722;-4.462;2023-04-26T05:21:07;100586.53;;;16.45;74.47
60725;BME280;59881;36.722;-4.462;2023-04-26T05:23:32;100494.16;;;15.90;73.75
60725;BME280;59881;36.722;-4.462;2023-04-26T05:26:05;100582.19;;;16.54;70.30
60725;BME280;59881;36.722;-4.462;2023-04-26T05:28:31;100481.41;;;16.04;64.97
60725;BME280;59881;36.722;-4.462;2023-04-26T05:30:58;100580.31;;;16.84;61.94
60725;BME280;59881;36.722;-4.462;2023-04-26T05:33:24;100574.81;;;16.95;60.46
60725;BME280;59881;36.722;-4.462;2023-04-26T05:35:49;100514.59;;;16.47;59.75
60725;BME280;59881;36.722;-4.462;2023-04-26T05:38:15;100572.44;;;16.92;62.61
60725;BME280;59881;36.722;-4.462;2023-04-26T05:40:40;100472.53;;;16.32;65.28
60725;BME280;59881;36.722;-4.462;2023-04-26T05:43:07;100503.56;;;16.42;66.90
60725;BME280;59881;36.722;-4.462;2023-04-26T05:45:32;100469.00;;;16.42;68.33
60725;BME280;59881;36.722;-4.462;2023-04-26T05:47:58;100395.75;;;16.20;70.45
60725;BME280;59881;36.722;-4.462;2023-04-26T05:50:23;100304.84;;;15.88;71.48
60725;BME280;59881;36.722;-4.462;2023-04-26T05:52:49;100396.28;;;17.24;72.85
60725;BME280;59881;36.722;-4.462;2023-04-26T05:55:14;100644.31;;;19.77;71.64
60725;BME280;59881;36.722;-4.462;2023-04-26T05:57:40;100482.94;;;19.95;67.80
60725;BME280;59881;36.722;-4.462;2023-04-26T06:00:06;100621.72;;;21.59;64.52
60725;BME280;59881;36.722;-4.462;2023-04-26T06:02:34;100477.59;;;21.29;62.51
60725;BME280;59881;36.722;-4.462;2023-04-26T06:04:59;100534.63;;;22.53;59.64
60725;BME280;59881;36.722;-4.462;2023-04-26T06:07:25;100626.38;;;23.76;57.28
60725;BME280;59881;36.722;-4.462;2023-04-26T06:09:50;100493.97;;;23.38;55.15
60725;BME280;59881;36.722;-4.462;2023-04-26T06:12:16;100590.41;;;24.48;53.56
60725;BME280;59881;36.722;-4.462;2023-04-26T06:14:41;100619.97;;;24.98;51.54
60725;BME280;59881;36.722;-4.462;2023-04-26T06:17:07;100595.75;;;24.70;51.34
60725;BME280;59881;36.722;-4.462;2023-04-26T06:19:33;100544.19;;;23.95;51.84
60725;BME280;59881;36.722;-4.462;2023-04-26T06:21:59;100598.72;;;24.04;52.12
60725;BME280;59881;36.722;-4.462;2023-04-26T06:24:25;100640.84;;;24.40;52.50
60725;BME280;59881;36.722;-4.462;2023-04-26T06:26:50;100635.75;;;24.73;51.69
60725;BME280;59881;36.722;-4.462;2023-04-26T06:29:16;100580.22;;;24.72;50.77
60725;BME280;59881;36.722;-4.462;2023-04-26T06:31:42;100546.88;;;24.73;50.09
60725;BME280;59881;36.722;-4.462;2023-04-26T06:34:07;100650.19;;;25.70;49.21
60725;BME280;59881;36.722;-4.462;2023-04-26T06:36:33;100636.81;;;25.96;49.69
60725;BME280;59881;36.722;-4.462;2023-04-26T06:38:58;100566.16;;;25.59;50.19
60725;BME280;59881;36.722;-4.462;2023-04-26T06:41:24;100493.72;;;25.63;48.90
60725;BME280;59881;36.722;-4.462;2023-04-26T06:43:49;100637.69;;;26.83;47.52
60725;BME280;59881;36.722;-4.462;2023-04-26T06:46:15;100549.81;;;26.34;46.96
60725;BME280;59881;36.722;-4.462;2023-04-26T06:48:40;100539.59;;;26.70;46.38
60725;BME280;59881;36.722;-4.462;2023-04-26T06:51:06;100664.25;;;28.17;44.97
60725;BME280;59881;36.722;-4.462;2023-04-26T06:53:33;100618.66;;;28.64;42.97
60725;BME280;59881;36.722;-4.462;2023-04-26T06:55:59;100651.59;;;29.29;41.98
60725;BME280;59881;36.722;-4.462;2023-04-26T06:58:24;100636.16;;;29.79;41.14
60725;BME280;59881;36.722;-4.462;2023-04-26T07:00:50;100630.72;;;30.21;39.99
60725;BME280;59881;36.722;-4.462;2023-04-26T07:03:16;100641.66;;;30.68;38.43
60725;BME280;59881;36.722;-4.462;2023-04-26T07:05:41;100366.13;;;29.39;37.95
60725;BME280;59881;36.722;-4.462;2023-04-26T07:08:07;100494.91;;;30.44;37.27
60725;BME280;59881;36.722;-4.462;2023-04-26T07:10:32;100491.00;;;30.92;36.32
60725;BME280;59881;36.722;-4.462;2023-04-26T07:12:59;100444.09;;;31.14;35.09
60725;BME280;59881;36.722;-4.462;2023-04-26T07:15:24;100622.59;;;32.64;34.74
60725;BME280;59881;36.722;-4.462;2023-04-26T07:17:50;100636.59;;;33.06;33.72
60725;BME280;59881;36.722;-4.462;2023-04-26T07:20:16;100643.44;;;33.53;33.05
60725;BME280;59881;36.722;-4.462;2023-04-26T07:22:45;100626.75;;;34.04;32.20
60725;BME280;59881;36.722;-4.462;2023-04-26T07:25:10;100635.84;;;34.79;31.20
60725;BME280;59881;36.722;-4.462;2023-04-26T07:27:36;100612.28;;;35.36;29.95
60725;BME280;59881;36.722;-4.462;2023-04-26T07:30:02;100633.81;;;36.11;28.40
60725;BME280;59881;36.722;-4.462;2023-04-26T07:32:27;100631.59;;;36.59;27.50
60725;BME280;59881;36.722;-4.462;2023-04-26T07:34:53;100654.94;;;36.66;27.15
60725;BME280;59881;36.722;-4.462;2023-04-26T07:37:18;100637.84;;;36.95;26.72
60725;BME280;59881;36.722;-4.462;2023-04-26T07:39:44;100613.06;;;37.21;25.90
60725;BME280;59881;36.722;-4.462;2023-04-26T07:42:09;100638.00;;;37.30;25.19
60725;BME280;59881;36.722;-4.462;2023-04-26T07:44:35;100607.06;;;37.14;24.87
60725;BME280;59881;36.722;-4.462;2023-04-26T07:47:01;100644.13;;;37.16;24.78
60725;BME280;59881;36.722;-4.462;2023-04-26T07:49:26;100637.41;;;37.43;24.64
60725;BME280;59881;36.722;-4.462;2023-04-26T07:51:52;100630.44;;;38.05;23.63
60725;BME280;59881;36.722;-4.462;2023-04-26T07:54:17;100634.59;;;38.32;23.03
60725;BME280;59881;36.722;-4.462;2023-04-26T07:56:43;100628.88;;;38.28;22.69
60725;BME280;59881;36.722;-4.462;2023-04-26T07:59:08;100591.16;;;38.29;22.82
60725;BME280;59881;36.722;-4.462;2023-04-26T08:01:34;100634.13;;;38.54;23.55
60725;BME280;59881;36.722;-4.462;2023-04-26T08:03:59;100560.59;;;37.67;23.97
60725;BME280;59881;36.722;-4.462;2023-04-26T08:06:25;100624.31;;;37.74;24.29
60725;BME280;59881;36.722;-4.462;2023-04-26T08:08:51;100612.81;;;37.67;24.96
60725;BME280;59881;36.722;-4.462;2023-04-26T08:11:17;100649.06;;;37.74;24.96
60725;BME280;59881;36.722;-4.462;2023-04-26T08:13:43;100620.31;;;37.56;25.26
60725;BME280;59881;36.722;-4.462;2023-04-26T08:16:09;100631.31;;;37.51;26.13
60725;BME280;59881;36.722;-4.462;2023-04-26T08:18:34;100640.22;;;37.27;27.55
60725;BME280;59881;36.722;-4.462;2023-04-26T08:21:00;100662.44;;;37.36;27.95
60725;BME280;59881;36.722;-4.462;2023-04-26T08:23:26;100658.25;;;37.49;27.98
60725;BME280;59881;36.722;-4.462;2023-04-26T08:25:52;100530.88;;;36.80;27.59
60725;BME280;59881;36.722;-4.462;2023-04-26T08:28:18;100651.53;;;37.76;27.17
60725;BME280;59881;36.722;-4.462;2023-04-26T08:30:43;100658.97;;;38.49;26.42
60725;BME280;59881;36.722;-4.462;2023-04-26T08:33:09;100651.72;;;38.58;25.95
60725;BME280;59881;36.722;-4.462;2023-04-26T08:35:35;100564.91;;;38.13;26.10
60725;BME280;59881;36.722;-4.462;2023-04-26T08:38:00;100650.28;;;39.14;25.48
60725;BME280;59881;36.722;-4.462;2023-04-26T08:40:26;100655.31;;;39.07;25.52
60725;BME280;59881;36.722;-4.462;2023-04-26T08:42:51;100566.50;;;38.72;25.55
60725;BME280;59881;36.722;-4.462;2023-04-26T08:45:19;100666.69;;;39.48;24.97
60725;BME280;59881;36.722;-4.462;2023-04-26T08:47:49;100654.34;;;39.79;24.46
60725;BME280;59881;36.722;-4.462;2023-04-26T08:50:19;100647.06;;;40.40;23.70
60725;BME280;59881;36.722;-4.462;2023-04-26T08:52:47;100648.06;;;41.04;23.06
60725;BME280;59881;36.722;-4.462;2023-04-26T08:55:13;100651.41;;;41.56;22.16
60725;BME280;59881;36.722;-4.462;2023-04-26T08:57:42;100655.50;;;41.31;22.23
60725;BME280;59881;36.722;-4.462;2023-04-26T09:00:10;100625.03;;;41.09;22.22
60725;BME280;59881;36.722;-4.462;2023-04-26T09:02:41;100622.75;;;40.69;22.53
60725;BME280;59881;36.722;-4.462;2023-04-26T09:05:07;100557.41;;;40.23;22.46
60725;BME280;59881;36.722;-4.462;2023-04-26T09:07:46;100665.66;;;41.22;22.51
60725;BME280;59881;36.722;-4.462;2023-04-26T09:10:17;100658.38;;;41.40;21.69
60725;BME280;59881;36.722;-4.462;2023-04-26T09:12:52;100636.34;;;41.49;22.16
60725;BME280;59881;36.722;-4.462;2023-04-26T09:15:20;100647.84;;;41.56;22.03
60725;BME280;59881;36.722;-4.462;2023-04-26T09:17:47;100665.03;;;41.89;22.07
60725;BME280;59881;36.722;-4.462;2023-04-26T09:20:23;100549.41;;;41.05;21.91
60725;BME280;59881;36.722;-4.462;2023-04-26T09:22:51;100663.06;;;41.90;21.70
60725;BME280;59881;36.722;-4.462;2023-04-26T09:25:26;100672.09;;;42.18;21.83
60725;BME280;59881;36.722;-4.462;2023-04-26T09:27:52;100655.22;;;42.59;21.04
60725;BME280;59881;36.722;-4.462;2023-04-26T09:30:17;100658.16;;;42.94;20.48
60725;BME280;59881;36.722;-4.462;2023-04-26T09:33:00;100654.75;;;42.97;20.50
60725;BME280;59881;36.722;-4.462;2023-04-26T09:35:40;100458.59;;;42.02;20.00
60725;BME280;59881;36.722;-4.462;2023-04-26T09:38:12;100580.31;;;43.13;19.62
60725;BME280;59881;36.722;-4.462;2023-04-26T09:40:42;100661.94;;;43.91;19.06
60725;BME280;59881;36.722;-4.462;2023-04-26T09:43:12;100666.50;;;43.69;19.08
60725;BME280;59881;36.722;-4.462;2023-04-26T09:45:56;100662.06;;;43.94;18.92
60725;BME280;59881;36.722;-4.462;2023-04-26T09:48:29;100662.88;;;44.12;18.21
60725;BME280;59881;36.722;-4.462;2023-04-26T09:53:28;100670.38;;;43.42;18.35
60725;BME280;59881;36.722;-4.462;2023-04-26T09:55:55;100671.06;;;43.83;17.89
60725;BME280;59881;36.722;-4.462;2023-04-26T09:58:22;100668.78;;;43.85;17.86
60725;BME280;59881;36.722;-4.462;2023-04-26T10:00:51;100684.94;;;44.09;17.50
60725;BME280;59881;36.722;-4.462;2023-04-26T10:03:19;100564.63;;;43.96;17.40
60725;BME280;59881;36.722;-4.462;2023-04-26T10:05:45;100668.50;;;44.98;17.18
60725;BME280;59881;36.722;-4.462;2023-04-26T10:08:12;100668.06;;;45.47;16.77
60725;BME280;59881;36.722;-4.462;2023-04-26T10:10:38;100676.22;;;45.73;16.58
60725;BME280;59881;36.722;-4.462;2023-04-26T10:13:04;100588.00;;;45.31;16.63
60725;BME280;59881;36.722;-4.462;2023-04-26T10:15:31;100584.13;;;45.44;16.70
60725;BME280;59881;36.722;-4.462;2023-04-26T10:17:56;100668.78;;;46.19;16.51
60725;BME280;59881;36.722;-4.462;2023-04-26T10:20:25;100677.94;;;46.19;16.90
60725;BME280;59881;36.722;-4.462;2023-04-26T10:22:52;100674.28;;;46.07;17.26
60725;BME280;59881;36.722;-4.462;2023-04-26T10:25:19;100675.56;;;46.67;16.72
60725;BME280;59881;36.722;-4.462;2023-04-26T10:27:45;100676.19;;;46.85;16.56
60725;BME280;59881;36.722;-4.462;2023-04-26T10:30:15;100677.25;;;46.80;16.72
60725;BME280;59881;36.722;-4.462;2023-04-26T10:35:33;100633.50;;;44.20;18.61
60725;BME280;59881;36.722;-4.462;2023-04-26T10:40:32;100595.00;;;42.03;20.29
60725;BME280;59881;36.722;-4.462;2023-04-26T10:45:42;100701.97;;;34.38;30.09
60725;BME280;59881;36.722;-4.462;2023-04-26T10:53:29;100725.94;;;28.78;39.80
60725;BME280;59881;36.722;-4.462;2023-04-26T10:55:55;100594.66;;;27.47;41.47
60725;BME280;59881;36.722;-4.462;2023-04-26T10:58:30;100704.81;;;27.85;42.28
60725;BME280;59881;36.722;-4.462;2023-04-26T11:03:29;100723.91;;;27.18;40.95
60725;BME280;59881;36.722;-4.462;2023-04-26T11:05:55;100608.19;;;26.22;43.96
60725;BME280;59881;36.722;-4.462;2023-04-26T11:10:56;100648.50;;;26.24;46.02
60725;BME280;59881;36.722;-4.462;2023-04-26T11:13:21;100589.19;;;25.62;46.55
60725;BME280;59881;36.722;-4.462;2023-04-26T11:15:58;100715.16;;;26.36;47.32
60725;BME280;59881;36.722;-4.462;2023-04-26T11:18:24;100712.63;;;26.08;49.16
60725;BME280;59881;36.722;-4.462;2023-04-26T11:20:50;100711.97;;;25.93;49.93
60725;BME280;59881;36.722;-4.462;2023-04-26T11:23:17;100713.31;;;25.75;50.21
60725;BME280;59881;36.722;-4.462;2023-04-26T11:25:44;100710.56;;;25.62;50.42
60725;BME280;59881;36.722;-4.462;2023-04-26T11:28:11;100719.19;;;25.44;51.06
60725;BME280;59881;36.722;-4.462;2023-04-26T11:30:36;100720.91;;;25.24;52.22
60725;BME280;59881;36.722;-4.462;2023-04-26T11:33:02;100675.31;;;24.94;52.63
60725;BME280;59881;36.722;-4.462;2023-04-26T11:35:34;100715.16;;;25.27;52.47
60725;BME280;59881;36.722;-4.462;2023-04-26T11:38:03;100714.78;;;25.36;53.10
60725;BME280;59881;36.722;-4.462;2023-04-26T11:40:31;100706.19;;;25.19;52.50
60725;BME280;59881;36.722;-4.462;2023-04-26T11:43:04;100705.53;;;24.89;53.18
60725;BME280;59881;36.722;-4.462;2023-04-26T11:45:34;100711.28;;;24.86;53.87
60725;BME280;59881;36.722;-4.462;2023-04-26T11:48:05;100724.75;;;24.86;54.05
60725;BME280;59881;36.722;-4.462;2023-04-26T11:50:33;100724.75;;;24.58;52.48
60725;BME280;59881;36.722;-4.462;2023-04-26T11:53:03;100703.69;;;24.25;52.58
60725;BME280;59881;36.722;-4.462;2023-04-26T11:55:31;100702.41;;;24.21;51.91
60725;BME280;59881;36.722;-4.462;2023-04-26T11:57:58;100721.97;;;24.30;52.94
60725;BME280;59881;36.722;-4.462;2023-04-26T12:00:24;100710.66;;;24.20;52.90
60725;BME280;59881;36.722;-4.462;2023-04-26T12:02:50;100723.19;;;24.27;52.20
60725;BME280;59881;36.722;-4.462;2023-04-26T12:05:34;100723.75;;;24.23;52.20
60725;BME280;59881;36.722;-4.462;2023-04-26T12:08:00;100721.34;;;24.13;52.55
60725;BME280;59881;36.722;-4.462;2023-04-26T12:10:29;100722.97;;;24.07;53.37
60725;BME280;59881;36.722;-4.462;2023-04-26T12:12:57;100708.25;;;24.25;52.22
60725;BME280;59881;36.722;-4.462;2023-04-26T12:15:29;100708.69;;;24.28;52.14
60725;BME280;59881;36.722;-4.462;2023-04-26T12:18:15;100703.22;;;24.22;52.36
60725;BME280;59881;36.722;-4.462;2023-04-26T12:20:41;100693.25;;;24.15;52.39
60725;BME280;59881;36.722;-4.462;2023-04-26T12:23:09;100706.72;;;24.15;51.99
60725;BME280;59881;36.722;-4.462;2023-04-26T12:25:37;100708.88;;;24.05;53.83
60725;BME280;59881;36.722;-4.462;2023-04-26T12:28:05;100698.09;;;24.05;54.52
60725;BME280;59881;36.722;-4.462;2023-04-26T12:30:32;100699.75;;;24.06;54.61
60725;BME280;59881;36.722;-4.462;2023-04-26T12:32:58;100681.69;;;24.00;54.58
60725;BME280;59881;36.722;-4.462;2023-04-26T12:35:23;100675.13;;;23.88;53.82
60725;BME280;59881;36.722;-4.462;2023-04-26T12:37:50;100491.75;;;22.75;55.38
60725;BME280;59881;36.722;-4.462;2023-04-26T12:40:18;100689.94;;;23.99;54.83
60725;BME280;59881;36.722;-4.462;2023-04-26T12:42:46;100689.28;;;24.11;54.30
60725;BME280;59881;36.722;-4.462;2023-04-26T12:45:12;100598.00;;;23.73;53.83
60725;BME280;59881;36.722;-4.462;2023-04-26T12:47:37;100685.91;;;24.31;53.44
60725;BME280;59881;36.722;-4.462;2023-04-26T12:50:03;100564.97;;;23.43;53.99
60725;BME280;59881;36.722;-4.462;2023-04-26T12:52:30;100652.03;;;23.93;53.80
60725;BME280;59881;36.722;-4.462;2023-04-26T12:54:56;100691.16;;;24.17;53.01
60725;BME280;59881;36.722;-4.462;2023-04-26T12:57:22;100629.66;;;23.93;51.73
60725;BME280;59881;36.722;-4.462;2023-04-26T12:59:47;100684.50;;;24.35;51.05